sensor_id;sensor_type;location;lat;lon;timestamp;temperature;humidity
49238;DHT22;35069;47.906;1.892;2022-08-21T00:00:51;21.10;62.30
49238;DHT22;35069;47.906;1.892;2022-08-21T00:03:17;21.10;62.40
49238;DHT22;35069;47.906;1.892;2022-08-21T00:05:46;21.00;62.60
49238;DHT22;35069;47.906;1.892;2022-08-21T00:08:13;21.00;62.90
49238;DHT22;35069;47.906;1.892;2022-08-21T00:10:40;20.90;63.20
49238;DHT22;35069;47.906;1.892;2022-08-21T00:13:07;20.90;63.50
49238;DHT22;35069;47.906;1.892;2022-08-21T00:15:34;20.90;63.80
49238;DHT22;35069;47.906;1.892;2022-08-21T00:18:01;20.90;63.80
49238;DHT22;35069;47.906;1.892;2022-08-21T00:20:27;20.90;64.00
49238;DHT22;35069;47.906;1.892;2022-08-21T00:22:53;20.80;64.00
49238;DHT22;35069;47.906;1.892;2022-08-21T00:25:20;20.80;64.10
49238;DHT22;35069;47.906;1.892;2022-08-21T00:27:45;20.80;64.50
49238;DHT22;35069;47.906;1.892;2022-08-21T00:30:15;20.70;64.40
49238;DHT22;35069;47.906;1.892;2022-08-21T00:32:42;20.70;64.90
49238;DHT22;35069;47.906;1.892;2022-08-21T00:35:12;20.70;65.00
49238;DHT22;35069;47.906;1.892;2022-08-21T00:37:39;20.70;65.10
49238;DHT22;35069;47.906;1.892;2022-08-21T00:40:07;20.70;64.70
49238;DHT22;35069;47.906;1.892;2022-08-21T00:42:33;20.70;64.50
49238;DHT22;35069;47.906;1.892;2022-08-21T00:44:58;20.80;64.40
49238;DHT22;35069;47.906;1.892;2022-08-21T00:47:24;20.80;64.40
49238;DHT22;35069;47.906;1.892;2022-08-21T00:49:50;20.80;64.40
49238;DHT22;35069;47.906;1.892;2022-08-21T00:52:19;20.80;64.60
49238;DHT22;35069;47.906;1.892;2022-08-21T00:54:47;20.70;64.90
49238;DHT22;35069;47.906;1.892;2022-08-21T00:57:17;20.60;65.20
49238;DHT22;35069;47.906;1.892;2022-08-21T00:59:47;20.50;65.60
49238;DHT22;35069;47.906;1.892;2022-08-21T01:02:17;20.50;65.50
49238;DHT22;35069;47.906;1.892;2022-08-21T01:04:43;20.50;65.50
49238;DHT22;35069;47.906;1.892;2022-08-21T01:07:09;20.40;65.60
49238;DHT22;35069;47.906;1.892;2022-08-21T01:09:35;20.40;65.90
49238;DHT22;35069;47.906;1.892;2022-08-21T01:12:01;20.40;66.10
49238;DHT22;35069;47.906;1.892;2022-08-21T01:14:27;20.40;65.90
49238;DHT22;35069;47.906;1.892;2022-08-21T01:16:54;20.40;65.90
49238;DHT22;35069;47.906;1.892;2022-08-21T01:19:21;20.40;66.00
49238;DHT22;35069;47.906;1.892;2022-08-21T01:21:47;20.40;66.30
49238;DHT22;35069;47.906;1.892;2022-08-21T01:24:13;20.30;66.60
49238;DHT22;35069;47.906;1.892;2022-08-21T01:26:40;20.30;66.90
49238;DHT22;35069;47.906;1.892;2022-08-21T01:31:58;20.20;66.90
49238;DHT22;35069;47.906;1.892;2022-08-21T01:34:23;20.20;66.90
49238;DHT22;35069;47.906;1.892;2022-08-21T01:36:49;20.10;67.10
49238;DHT22;35069;47.906;1.892;2022-08-21T01:39:15;20.10;67.50
49238;DHT22;35069;47.906;1.892;2022-08-21T01:41:40;20.10;67.60
49238;DHT22;35069;47.906;1.892;2022-08-21T01:44:07;20.00;67.70
49238;DHT22;35069;47.906;1.892;2022-08-21T01:46:33;20.10;67.70
49238;DHT22;35069;47.906;1.892;2022-08-21T01:48:59;20.10;67.50
49238;DHT22;35069;47.906;1.892;2022-08-21T01:51:25;20.20;67.10
49238;DHT22;35069;47.906;1.892;2022-08-21T01:53:50;20.20;66.90
49238;DHT22;35069;47.906;1.892;2022-08-21T01:56:17;20.10;66.80
49238;DHT22;35069;47.906;1.892;2022-08-21T01:58:44;20.20;66.60
49238;DHT22;35069;47.906;1.892;2022-08-21T02:01:11;20.20;66.40
49238;DHT22;35069;47.906;1.892;2022-08-21T02:03:37;20.20;66.20
49238;DHT22;35069;47.906;1.892;2022-08-21T02:06:04;20.30;66.00
49238;DHT22;35069;47.906;1.892;2022-08-21T02:08:30;20.20;66.00
49238;DHT22;35069;47.906;1.892;2022-08-21T02:10:56;20.20;66.40
49238;DHT22;35069;47.906;1.892;2022-08-21T02:13:21;20.10;66.60
49238;DHT22;35069;47.906;1.892;2022-08-21T02:15:47;20.00;66.90
49238;DHT22;35069;47.906;1.892;2022-08-21T02:18:13;20.00;67.10
49238;DHT22;35069;47.906;1.892;2022-08-21T02:20:42;20.00;67.00
49238;DHT22;35069;47.906;1.892;2022-08-21T02:23:10;20.00;67.00
49238;DHT22;35069;47.906;1.892;2022-08-21T02:25:37;20.00;67.20
49238;DHT22;35069;47.906;1.892;2022-08-21T02:28:06;20.00;67.30
49238;DHT22;35069;47.906;1.892;2022-08-21T02:30:35;19.90;67.30
49238;DHT22;35069;47.906;1.892;2022-08-21T02:33:04;19.80;67.70
49238;DHT22;35069;47.906;1.892;2022-08-21T02:35:30;19.80;68.10
49238;DHT22;35069;47.906;1.892;2022-08-21T02:38:02;19.70;68.60
49238;DHT22;35069;47.906;1.892;2022-08-21T02:40:32;19.60;68.90
49238;DHT22;35069;47.906;1.892;2022-08-21T02:42:59;19.60;69.50
49238;DHT22;35069;47.906;1.892;2022-08-21T02:45:25;19.50;69.60
49238;DHT22;35069;47.906;1.892;2022-08-21T02:47:53;19.50;70.50
49238;DHT22;35069;47.906;1.892;2022-08-21T02:50:21;19.50;70.10
49238;DHT22;35069;47.906;1.892;2022-08-21T02:52:48;19.50;70.20
49238;DHT22;35069;47.906;1.892;2022-08-21T02:55:14;19.50;70.00
49238;DHT22;35069;47.906;1.892;2022-08-21T02:57:40;19.50;70.30
49238;DHT22;35069;47.906;1.892;2022-08-21T03:00:06;19.50;70.00
49238;DHT22;35069;47.906;1.892;2022-08-21T03:02:33;19.60;69.90
49238;DHT22;35069;47.906;1.892;2022-08-21T03:05:00;19.50;69.80
49238;DHT22;35069;47.906;1.892;2022-08-21T03:07:25;19.60;69.50
49238;DHT22;35069;47.906;1.892;2022-08-21T03:09:51;19.60;69.20
49238;DHT22;35069;47.906;1.892;2022-08-21T03:12:17;19.60;69.20
49238;DHT22;35069;47.906;1.892;2022-08-21T03:14:43;19.60;69.10
49238;DHT22;35069;47.906;1.892;2022-08-21T03:17:08;19.50;69.10
49238;DHT22;35069;47.906;1.892;2022-08-21T03:19:34;19.60;69.10
49238;DHT22;35069;47.906;1.892;2022-08-21T03:22:00;19.60;69.10
49238;DHT22;35069;47.906;1.892;2022-08-21T03:24:25;19.60;69.00
49238;DHT22;35069;47.906;1.892;2022-08-21T03:26:51;19.50;69.20
49238;DHT22;35069;47.906;1.892;2022-08-21T03:29:17;19.50;69.40
49238;DHT22;35069;47.906;1.892;2022-08-21T03:31:42;19.50;69.60
49238;DHT22;35069;47.906;1.892;2022-08-21T03:34:08;19.50;69.40
49238;DHT22;35069;47.906;1.892;2022-08-21T03:36:33;19.60;69.30
49238;DHT22;35069;47.906;1.892;2022-08-21T03:38:59;19.60;69.20
49238;DHT22;35069;47.906;1.892;2022-08-21T03:41:24;19.50;69.20
49238;DHT22;35069;47.906;1.892;2022-08-21T03:43:50;19.50;69.00
49238;DHT22;35069;47.906;1.892;2022-08-21T03:46:16;19.40;69.20
49238;DHT22;35069;47.906;1.892;2022-08-21T03:48:41;19.30;69.60
49238;DHT22;35069;47.906;1.892;2022-08-21T03:51:07;19.30;69.70
49238;DHT22;35069;47.906;1.892;2022-08-21T03:53:33;19.30;69.70
49238;DHT22;35069;47.906;1.892;2022-08-21T03:55:59;19.30;69.70
49238;DHT22;35069;47.906;1.892;2022-08-21T03:58:26;19.30;70.20
49238;DHT22;35069;47.906;1.892;2022-08-21T04:00:54;19.30;70.10
49238;DHT22;35069;47.906;1.892;2022-08-21T04:03:21;19.30;70.40
49238;DHT22;35069;47.906;1.892;2022-08-21T04:05:46;19.20;70.90
49238;DHT22;35069;47.906;1.892;2022-08-21T04:08:13;19.20;70.90
49238;DHT22;35069;47.906;1.892;2022-08-21T04:10:40;19.10;71.40
49238;DHT22;35069;47.906;1.892;2022-08-21T04:13:06;19.10;71.70
49238;DHT22;35069;47.906;1.892;2022-08-21T04:15:33;19.00;72.00
49238;DHT22;35069;47.906;1.892;2022-08-21T04:17:58;18.90;73.10
49238;DHT22;35069;47.906;1.892;2022-08-21T04:20:24;18.80;72.90
49238;DHT22;35069;47.906;1.892;2022-08-21T04:22:50;18.80;73.30
49238;DHT22;35069;47.906;1.892;2022-08-21T04:25:18;18.80;73.60
49238;DHT22;35069;47.906;1.892;2022-08-21T04:27:45;18.70;73.80
49238;DHT22;35069;47.906;1.892;2022-08-21T04:30:13;18.70;74.60
49238;DHT22;35069;47.906;1.892;2022-08-21T04:32:42;18.50;75.10
49238;DHT22;35069;47.906;1.892;2022-08-21T04:35:10;18.50;76.10
49238;DHT22;35069;47.906;1.892;2022-08-21T04:37:36;18.50;75.60
49238;DHT22;35069;47.906;1.892;2022-08-21T04:40:03;18.50;75.60
49238;DHT22;35069;47.906;1.892;2022-08-21T04:42:29;18.50;76.00
49238;DHT22;35069;47.906;1.892;2022-08-21T04:44:55;18.50;76.90
49238;DHT22;35069;47.906;1.892;2022-08-21T04:47:22;18.40;76.80
49238;DHT22;35069;47.906;1.892;2022-08-21T04:49:48;18.30;76.80
49238;DHT22;35069;47.906;1.892;2022-08-21T04:52:17;18.40;77.30
49238;DHT22;35069;47.906;1.892;2022-08-21T04:54:45;18.30;77.80
49238;DHT22;35069;47.906;1.892;2022-08-21T04:57:11;18.30;78.20
49238;DHT22;35069;47.906;1.892;2022-08-21T04:59:43;18.30;78.60
49238;DHT22;35069;47.906;1.892;2022-08-21T05:02:10;18.20;79.20
49238;DHT22;35069;47.906;1.892;2022-08-21T05:04:40;18.20;79.70
49238;DHT22;35069;47.906;1.892;2022-08-21T05:07:12;18.20;80.30
49238;DHT22;35069;47.906;1.892;2022-08-21T05:09:39;18.20;80.60
49238;DHT22;35069;47.906;1.892;2022-08-21T05:12:05;18.30;80.60
49238;DHT22;35069;47.906;1.892;2022-08-21T05:14:31;18.30;80.80
49238;DHT22;35069;47.906;1.892;2022-08-21T05:16:56;18.40;81.10
49238;DHT22;35069;47.906;1.892;2022-08-21T05:19:22;18.40;81.20
49238;DHT22;35069;47.906;1.892;2022-08-21T05:21:48;18.50;81.50
49238;DHT22;35069;47.906;1.892;2022-08-21T05:24:15;18.50;81.80
49238;DHT22;35069;47.906;1.892;2022-08-21T05:26:41;18.60;82.00
49238;DHT22;35069;47.906;1.892;2022-08-21T05:29:07;18.60;81.60
49238;DHT22;35069;47.906;1.892;2022-08-21T05:31:33;18.70;82.00
49238;DHT22;35069;47.906;1.892;2022-08-21T05:33:59;18.80;82.40
49238;DHT22;35069;47.906;1.892;2022-08-21T05:36:25;18.80;82.60
49238;DHT22;35069;47.906;1.892;2022-08-21T05:38:50;19.00;82.60
49238;DHT22;35069;47.906;1.892;2022-08-21T05:41:16;19.10;82.60
49238;DHT22;35069;47.906;1.892;2022-08-21T05:43:42;19.20;81.90
49238;DHT22;35069;47.906;1.892;2022-08-21T05:46:08;19.10;81.90
49238;DHT22;35069;47.906;1.892;2022-08-21T05:48:35;19.10;82.20
49238;DHT22;35069;47.906;1.892;2022-08-21T05:51:11;19.10;82.50
49238;DHT22;35069;47.906;1.892;2022-08-21T05:53:38;19.10;82.90
49238;DHT22;35069;47.906;1.892;2022-08-21T05:56:04;19.10;82.90
49238;DHT22;35069;47.906;1.892;2022-08-21T05:58:32;19.30;83.40
49238;DHT22;35069;47.906;1.892;2022-08-21T06:00:58;19.60;83.30
49238;DHT22;35069;47.906;1.892;2022-08-21T06:03:27;19.80;82.50
49238;DHT22;35069;47.906;1.892;2022-08-21T06:05:53;20.00;82.20
49238;DHT22;35069;47.906;1.892;2022-08-21T06:08:20;20.20;81.60
49238;DHT22;35069;47.906;1.892;2022-08-21T06:10:47;20.30;80.70
49238;DHT22;35069;47.906;1.892;2022-08-21T06:13:14;20.50;80.40
49238;DHT22;35069;47.906;1.892;2022-08-21T06:15:40;20.60;80.20
49238;DHT22;35069;47.906;1.892;2022-08-21T06:18:07;20.70;79.50
49238;DHT22;35069;47.906;1.892;2022-08-21T06:20:33;20.80;78.80
49238;DHT22;35069;47.906;1.892;2022-08-21T06:22:59;20.70;78.40
49238;DHT22;35069;47.906;1.892;2022-08-21T06:25:25;20.70;78.70
49238;DHT22;35069;47.906;1.892;2022-08-21T06:27:51;20.80;78.90
49238;DHT22;35069;47.906;1.892;2022-08-21T06:30:17;21.00;78.60
49238;DHT22;35069;47.906;1.892;2022-08-21T06:32:43;21.10;78.00
49238;DHT22;35069;47.906;1.892;2022-08-21T06:35:09;21.10;77.50
49238;DHT22;35069;47.906;1.892;2022-08-21T06:37:35;21.10;77.20
49238;DHT22;35069;47.906;1.892;2022-08-21T06:40:03;21.10;77.20
49238;DHT22;35069;47.906;1.892;2022-08-21T06:42:29;21.00;76.90
49238;DHT22;35069;47.906;1.892;2022-08-21T06:44:56;20.90;77.00
49238;DHT22;35069;47.906;1.892;2022-08-21T06:47:22;20.90;77.00
49238;DHT22;35069;47.906;1.892;2022-08-21T06:49:48;20.90;76.90
49238;DHT22;35069;47.906;1.892;2022-08-21T06:52:13;20.70;77.20
49238;DHT22;35069;47.906;1.892;2022-08-21T06:54:39;20.80;77.80
49238;DHT22;35069;47.906;1.892;2022-08-21T06:57:05;21.20;77.90
49238;DHT22;35069;47.906;1.892;2022-08-21T06:59:32;21.50;77.30
49238;DHT22;35069;47.906;1.892;2022-08-21T07:01:59;21.80;76.60
49238;DHT22;35069;47.906;1.892;2022-08-21T07:04:25;22.00;76.00
49238;DHT22;35069;47.906;1.892;2022-08-21T07:06:50;22.30;75.80
49238;DHT22;35069;47.906;1.892;2022-08-21T07:09:16;22.60;75.20
49238;DHT22;35069;47.906;1.892;2022-08-21T07:11:42;23.00;74.20
49238;DHT22;35069;47.906;1.892;2022-08-21T07:14:09;22.80;72.30
49238;DHT22;35069;47.906;1.892;2022-08-21T07:16:35;22.40;72.20
49238;DHT22;35069;47.906;1.892;2022-08-21T07:19:00;22.50;73.20
49238;DHT22;35069;47.906;1.892;2022-08-21T07:21:26;22.80;73.20
49238;DHT22;35069;47.906;1.892;2022-08-21T07:23:52;23.00;73.10
49238;DHT22;35069;47.906;1.892;2022-08-21T07:26:21;23.50;72.80
49238;DHT22;35069;47.906;1.892;2022-08-21T07:28:48;23.90;71.30
49238;DHT22;35069;47.906;1.892;2022-08-21T07:31:15;24.40;70.50
49238;DHT22;35069;47.906;1.892;2022-08-21T07:33:41;24.80;68.80
49238;DHT22;35069;47.906;1.892;2022-08-21T07:36:07;25.10;67.80
49238;DHT22;35069;47.906;1.892;2022-08-21T07:38:34;25.10;66.50
49238;DHT22;35069;47.906;1.892;2022-08-21T07:41:00;25.50;66.60
49238;DHT22;35069;47.906;1.892;2022-08-21T07:43:27;26.00;66.00
49238;DHT22;35069;47.906;1.892;2022-08-21T07:45:53;26.30;64.90
49238;DHT22;35069;47.906;1.892;2022-08-21T07:48:23;26.40;63.90
49238;DHT22;35069;47.906;1.892;2022-08-21T07:50:49;26.70;64.10
49238;DHT22;35069;47.906;1.892;2022-08-21T07:53:15;27.20;63.50
49238;DHT22;35069;47.906;1.892;2022-08-21T07:55:41;27.10;62.30
49238;DHT22;35069;47.906;1.892;2022-08-21T07:58:07;27.40;62.60
49238;DHT22;35069;47.906;1.892;2022-08-21T08:00:33;28.30;63.00
49238;DHT22;35069;47.906;1.892;2022-08-21T08:02:58;28.90;60.60
49238;DHT22;35069;47.906;1.892;2022-08-21T08:05:29;28.40;58.10
49238;DHT22;35069;47.906;1.892;2022-08-21T08:07:55;28.90;58.50
49238;DHT22;35069;47.906;1.892;2022-08-21T08:10:22;29.70;58.00
49238;DHT22;35069;47.906;1.892;2022-08-21T08:12:48;29.90;55.70
49238;DHT22;35069;47.906;1.892;2022-08-21T08:15:17;29.00;54.10
49238;DHT22;35069;47.906;1.892;2022-08-21T08:17:43;27.90;54.80
49238;DHT22;35069;47.906;1.892;2022-08-21T08:20:11;27.10;55.80
49238;DHT22;35069;47.906;1.892;2022-08-21T08:22:37;26.60;57.20
49238;DHT22;35069;47.906;1.892;2022-08-21T08:25:05;26.40;58.00
49238;DHT22;35069;47.906;1.892;2022-08-21T08:27:31;26.00;58.50
49238;DHT22;35069;47.906;1.892;2022-08-21T08:29:56;25.80;58.80
49238;DHT22;35069;47.906;1.892;2022-08-21T08:32:23;25.40;59.30
49238;DHT22;35069;47.906;1.892;2022-08-21T08:34:49;25.20;60.20
49238;DHT22;35069;47.906;1.892;2022-08-21T08:37:17;24.90;61.40
49238;DHT22;35069;47.906;1.892;2022-08-21T08:39:43;24.90;61.60
49238;DHT22;35069;47.906;1.892;2022-08-21T08:42:14;25.10;63.30
49238;DHT22;35069;47.906;1.892;2022-08-21T08:44:42;25.50;63.30
49238;DHT22;35069;47.906;1.892;2022-08-21T08:47:10;25.70;63.70
49238;DHT22;35069;47.906;1.892;2022-08-21T08:57:35;25.60;62.60
49238;DHT22;35069;47.906;1.892;2022-08-21T09:00:07;25.90;63.10
49238;DHT22;35069;47.906;1.892;2022-08-21T09:02:42;26.20;63.10
49238;DHT22;35069;47.906;1.892;2022-08-21T09:05:28;26.20;61.80
49238;DHT22;35069;47.906;1.892;2022-08-21T09:08:14;26.00;61.10
49238;DHT22;35069;47.906;1.892;2022-08-21T09:13:38;25.40;61.10
49238;DHT22;35069;47.906;1.892;2022-08-21T09:16:23;25.00;61.40
49238;DHT22;35069;47.906;1.892;2022-08-21T09:18:55;24.60;62.40
49238;DHT22;35069;47.906;1.892;2022-08-21T09:22:01;24.30;62.90
49238;DHT22;35069;47.906;1.892;2022-08-21T09:27:15;23.80;64.30
49238;DHT22;35069;47.906;1.892;2022-08-21T09:29:44;23.80;65.00
49238;DHT22;35069;47.906;1.892;2022-08-21T09:32:18;23.90;65.80
49238;DHT22;35069;47.906;1.892;2022-08-21T09:37:44;24.50;65.50
49238;DHT22;35069;47.906;1.892;2022-08-21T09:40:26;24.80;64.60
49238;DHT22;35069;47.906;1.892;2022-08-21T09:43:05;24.80;63.70
49238;DHT22;35069;47.906;1.892;2022-08-21T09:45:32;24.50;64.20
49238;DHT22;35069;47.906;1.892;2022-08-21T09:48:18;24.30;64.40
49238;DHT22;35069;47.906;1.892;2022-08-21T09:50:45;24.20;65.10
49238;DHT22;35069;47.906;1.892;2022-08-21T09:53:22;24.20;65.10
49238;DHT22;35069;47.906;1.892;2022-08-21T09:55:56;24.40;65.60
49238;DHT22;35069;47.906;1.892;2022-08-21T09:58:42;24.60;65.40
49238;DHT22;35069;47.906;1.892;2022-08-21T10:01:19;24.80;64.90
49238;DHT22;35069;47.906;1.892;2022-08-21T10:03:45;24.80;64.30
49238;DHT22;35069;47.906;1.892;2022-08-21T10:06:23;24.80;64.10
49238;DHT22;35069;47.906;1.892;2022-08-21T10:08:49;24.70;64.30
49238;DHT22;35069;47.906;1.892;2022-08-21T10:11:16;24.80;64.30
49238;DHT22;35069;47.906;1.892;2022-08-21T10:13:59;24.80;63.80
49238;DHT22;35069;47.906;1.892;2022-08-21T10:16:51;24.70;63.40
49238;DHT22;35069;47.906;1.892;2022-08-21T10:22:38;24.40;63.60
49238;DHT22;35069;47.906;1.892;2022-08-21T10:25:19;24.10;63.40
49238;DHT22;35069;47.906;1.892;2022-08-21T10:28:03;23.80;64.30
49238;DHT22;35069;47.906;1.892;2022-08-21T10:33:52;23.30;65.00
49238;DHT22;35069;47.906;1.892;2022-08-21T10:39:35;23.10;65.90
49238;DHT22;35069;47.906;1.892;2022-08-21T10:42:25;23.10;66.30
49238;DHT22;35069;47.906;1.892;2022-08-21T10:45:08;23.10;67.10
49238;DHT22;35069;47.906;1.892;2022-08-21T10:47:49;23.20;67.00
49238;DHT22;35069;47.906;1.892;2022-08-21T10:50:28;23.30;67.60
49238;DHT22;35069;47.906;1.892;2022-08-21T10:56:02;23.50;68.00
49238;DHT22;35069;47.906;1.892;2022-08-21T11:01:37;23.90;67.20
49238;DHT22;35069;47.906;1.892;2022-08-21T11:06:51;26.20;65.40
49238;DHT22;35069;47.906;1.892;2022-08-21T11:09:22;30.00;62.80
49238;DHT22;35069;47.906;1.892;2022-08-21T11:12:34;34.40;56.60
49238;DHT22;35069;47.906;1.892;2022-08-21T11:17:42;34.80;46.40
49238;DHT22;35069;47.906;1.892;2022-08-21T11:20:40;32.50;45.80
49238;DHT22;35069;47.906;1.892;2022-08-21T11:23:15;30.80;46.60
49238;DHT22;35069;47.906;1.892;2022-08-21T11:25:48;29.60;49.50
49238;DHT22;35069;47.906;1.892;2022-08-21T11:28:23;29.10;50.80
49238;DHT22;35069;47.906;1.892;2022-08-21T11:31:31;28.80;51.40
49238;DHT22;35069;47.906;1.892;2022-08-21T11:39:48;28.90;52.20
49238;DHT22;35069;47.906;1.892;2022-08-21T11:42:29;28.60;51.40
49238;DHT22;35069;47.906;1.892;2022-08-21T11:45:18;28.10;51.70
49238;DHT22;35069;47.906;1.892;2022-08-21T11:48:00;27.90;52.00
49238;DHT22;35069;47.906;1.892;2022-08-21T11:50:32;27.60;52.20
49238;DHT22;35069;47.906;1.892;2022-08-21T11:53:04;27.40;53.20
49238;DHT22;35069;47.906;1.892;2022-08-21T11:55:50;27.20;52.90
49238;DHT22;35069;47.906;1.892;2022-08-21T11:58:24;27.10;52.40
49238;DHT22;35069;47.906;1.892;2022-08-21T12:01:00;27.00;53.10
49238;DHT22;35069;47.906;1.892;2022-08-21T12:03:36;27.00;53.10
49238;DHT22;35069;47.906;1.892;2022-08-21T12:06:07;27.00;52.90
49238;DHT22;35069;47.906;1.892;2022-08-21T12:08:35;27.20;53.00
49238;DHT22;35069;47.906;1.892;2022-08-21T12:11:09;27.50;51.80
49238;DHT22;35069;47.906;1.892;2022-08-21T12:13:52;27.60;52.00
49238;DHT22;35069;47.906;1.892;2022-08-21T12:19:14;27.20;52.00
49238;DHT22;35069;47.906;1.892;2022-08-21T12:22:06;26.90;50.10
49238;DHT22;35069;47.906;1.892;2022-08-21T12:24:38;26.60;50.40
49238;DHT22;35069;47.906;1.892;2022-08-21T12:29:49;26.20;50.10
49238;DHT22;35069;47.906;1.892;2022-08-21T12:34:45;26.20;51.00
49238;DHT22;35069;47.906;1.892;2022-08-21T12:37:41;26.30;50.70
49238;DHT22;35069;47.906;1.892;2022-08-21T12:40:22;26.40;49.80
49238;DHT22;35069;47.906;1.892;2022-08-21T12:42:51;26.50;49.40
49238;DHT22;35069;47.906;1.892;2022-08-21T12:45:43;26.60;50.30
49238;DHT22;35069;47.906;1.892;2022-08-21T12:48:18;26.40;47.90
49238;DHT22;35069;47.906;1.892;2022-08-21T12:56:19;25.40;48.50
49238;DHT22;35069;47.906;1.892;2022-08-21T12:58:55;25.20;50.00
49238;DHT22;35069;47.906;1.892;2022-08-21T13:01:25;25.30;49.20
49238;DHT22;35069;47.906;1.892;2022-08-21T13:03:53;25.40;50.40
49238;DHT22;35069;47.906;1.892;2022-08-21T13:06:22;25.40;50.60
49238;DHT22;35069;47.906;1.892;2022-08-21T13:08:57;25.60;50.80
49238;DHT22;35069;47.906;1.892;2022-08-21T13:11:23;25.80;50.90
49238;DHT22;35069;47.906;1.892;2022-08-21T13:13:51;26.10;51.00
49238;DHT22;35069;47.906;1.892;2022-08-21T13:16:24;26.30;51.10
49238;DHT22;35069;47.906;1.892;2022-08-21T13:18:57;26.50;51.40
49238;DHT22;35069;47.906;1.892;2022-08-21T13:21:30;26.40;51.40
49238;DHT22;35069;47.906;1.892;2022-08-21T13:24:16;26.10;51.80
49238;DHT22;35069;47.906;1.892;2022-08-21T13:26:42;25.80;53.00
49238;DHT22;35069;47.906;1.892;2022-08-21T13:29:10;25.60;53.10
49238;DHT22;35069;47.906;1.892;2022-08-21T13:31:38;25.40;53.80
49238;DHT22;35069;47.906;1.892;2022-08-21T13:34:05;25.20;54.40
49238;DHT22;35069;47.906;1.892;2022-08-21T13:36:35;25.30;55.20
49238;DHT22;35069;47.906;1.892;2022-08-21T13:39:04;25.30;55.50
49238;DHT22;35069;47.906;1.892;2022-08-21T13:41:34;25.40;55.30
49238;DHT22;35069;47.906;1.892;2022-08-21T13:44:05;25.50;55.60
49238;DHT22;35069;47.906;1.892;2022-08-21T13:46:34;25.60;55.60
49238;DHT22;35069;47.906;1.892;2022-08-21T13:49:02;25.70;55.60
49238;DHT22;35069;47.906;1.892;2022-08-21T13:51:30;25.80;55.50
49238;DHT22;35069;47.906;1.892;2022-08-21T13:53:57;25.90;55.60
49238;DHT22;35069;47.906;1.892;2022-08-21T13:56:33;26.00;55.50
49238;DHT22;35069;47.906;1.892;2022-08-21T13:59:00;26.10;55.60
49238;DHT22;35069;47.906;1.892;2022-08-21T14:01:38;26.10;55.60
49238;DHT22;35069;47.906;1.892;2022-08-21T14:04:20;26.10;55.80
49238;DHT22;35069;47.906;1.892;2022-08-21T14:06:47;26.00;55.90
49238;DHT22;35069;47.906;1.892;2022-08-21T14:09:25;26.00;56.10
49238;DHT22;35069;47.906;1.892;2022-08-21T14:11:53;26.00;56.40
49238;DHT22;35069;47.906;1.892;2022-08-21T14:14:24;26.00;56.40
49238;DHT22;35069;47.906;1.892;2022-08-21T14:17:02;26.00;56.50
49238;DHT22;35069;47.906;1.892;2022-08-21T14:19:43;26.00;56.70
49238;DHT22;35069;47.906;1.892;2022-08-21T14:22:36;25.90;56.60
49238;DHT22;35069;47.906;1.892;2022-08-21T14:25:06;25.80;57.20
49238;DHT22;35069;47.906;1.892;2022-08-21T14:27:42;25.60;56.90
49238;DHT22;35069;47.906;1.892;2022-08-21T14:30:13;25.60;57.20
49238;DHT22;35069;47.906;1.892;2022-08-21T14:32:41;25.70;57.50
49238;DHT22;35069;47.906;1.892;2022-08-21T14:35:07;25.90;58.30
49238;DHT22;35069;47.906;1.892;2022-08-21T14:37:34;26.20;57.30
49238;DHT22;35069;47.906;1.892;2022-08-21T14:40:00;26.40;56.80
49238;DHT22;35069;47.906;1.892;2022-08-21T14:42:26;26.50;56.40
49238;DHT22;35069;47.906;1.892;2022-08-21T14:44:54;26.40;56.10
49238;DHT22;35069;47.906;1.892;2022-08-21T14:47:22;26.30;56.60
49238;DHT22;35069;47.906;1.892;2022-08-21T14:49:47;26.20;56.20
49238;DHT22;35069;47.906;1.892;2022-08-21T14:52:13;26.20;56.10
49238;DHT22;35069;47.906;1.892;2022-08-21T14:54:39;26.20;56.60
49238;DHT22;35069;47.906;1.892;2022-08-21T14:57:09;26.20;56.50
49238;DHT22;35069;47.906;1.892;2022-08-21T14:59:36;26.10;56.10
49238;DHT22;35069;47.906;1.892;2022-08-21T15:02:03;26.00;56.00
49238;DHT22;35069;47.906;1.892;2022-08-21T15:04:32;25.90;55.80
49238;DHT22;35069;47.906;1.892;2022-08-21T15:06:58;25.90;55.80
49238;DHT22;35069;47.906;1.892;2022-08-21T15:09:23;25.90;55.50
49238;DHT22;35069;47.906;1.892;2022-08-21T15:11:52;25.90;54.90
49238;DHT22;35069;47.906;1.892;2022-08-21T15:14:21;25.90;54.60
49238;DHT22;35069;47.906;1.892;2022-08-21T15:16:49;25.90;54.40
49238;DHT22;35069;47.906;1.892;2022-08-21T15:19:15;25.90;54.10
49238;DHT22;35069;47.906;1.892;2022-08-21T15:21:41;25.90;54.00
49238;DHT22;35069;47.906;1.892;2022-08-21T15:24:06;25.80;54.00
49238;DHT22;35069;47.906;1.892;2022-08-21T15:26:33;25.80;54.10
49238;DHT22;35069;47.906;1.892;2022-08-21T15:28:59;25.80;54.00
49238;DHT22;35069;47.906;1.892;2022-08-21T15:31:25;25.80;53.90
49238;DHT22;35069;47.906;1.892;2022-08-21T15:33:50;25.90;53.80
49238;DHT22;35069;47.906;1.892;2022-08-21T15:36:17;25.90;53.40
49238;DHT22;35069;47.906;1.892;2022-08-21T15:38:43;25.90;53.30
49238;DHT22;35069;47.906;1.892;2022-08-21T15:41:10;25.90;53.10
49238;DHT22;35069;47.906;1.892;2022-08-21T15:43:42;25.90;53.00
49238;DHT22;35069;47.906;1.892;2022-08-21T15:46:10;25.90;52.90
49238;DHT22;35069;47.906;1.892;2022-08-21T15:48:37;25.80;52.90
49238;DHT22;35069;47.906;1.892;2022-08-21T15:51:02;25.70;52.80
49238;DHT22;35069;47.906;1.892;2022-08-21T15:53:28;25.60;52.80
49238;DHT22;35069;47.906;1.892;2022-08-21T15:55:54;25.50;53.00
49238;DHT22;35069;47.906;1.892;2022-08-21T15:58:21;25.30;53.10
49238;DHT22;35069;47.906;1.892;2022-08-21T16:00:47;25.20;53.30
49238;DHT22;35069;47.906;1.892;2022-08-21T16:03:15;25.10;53.50
49238;DHT22;35069;47.906;1.892;2022-08-21T16:05:43;25.10;53.60
49238;DHT22;35069;47.906;1.892;2022-08-21T16:08:09;25.10;53.80
49238;DHT22;35069;47.906;1.892;2022-08-21T16:10:36;25.20;53.90
49238;DHT22;35069;47.906;1.892;2022-08-21T16:13:07;25.20;53.80
49238;DHT22;35069;47.906;1.892;2022-08-21T16:15:35;25.20;53.80
49238;DHT22;35069;47.906;1.892;2022-08-21T16:18:01;25.10;53.80
49238;DHT22;35069;47.906;1.892;2022-08-21T16:20:28;25.10;54.00
49238;DHT22;35069;47.906;1.892;2022-08-21T16:22:55;25.00;54.10
49238;DHT22;35069;47.906;1.892;2022-08-21T16:25:22;25.00;54.40
49238;DHT22;35069;47.906;1.892;2022-08-21T16:27:54;24.90;54.60
49238;DHT22;35069;47.906;1.892;2022-08-21T16:30:20;24.90;54.80
49238;DHT22;35069;47.906;1.892;2022-08-21T16:32:46;24.90;55.00
49238;DHT22;35069;47.906;1.892;2022-08-21T16:35:16;24.90;55.20
49238;DHT22;35069;47.906;1.892;2022-08-21T16:37:43;25.00;55.20
49238;DHT22;35069;47.906;1.892;2022-08-21T16:40:09;25.00;55.10
49238;DHT22;35069;47.906;1.892;2022-08-21T16:42:36;25.10;55.10